This is the latest recevied weather packets stored in our database for station/object EA3KZ-1. If no packets are shown the sender has not sent any weather packets the latest 10 day(s).
| Time | Temp. | Humidity | Pressure | Rain* | Wind** | Luminosity | Snow |
|---|---|---|---|---|---|---|---|
| 1778072163 | 19.44° C | 47% | 1006.6 hPa | 0 mm | - | - | - |
| 1778071555 | 19.44° C | 46% | 1006.6 hPa | 0 mm | - | - | - |
| 1778070953 | 20° C | 45% | 1006.7 hPa | 0 mm | - | - | - |
| 1778070344 | 19.44° C | 47% | 1006.7 hPa | 0 mm | - | - | - |
| 1778069742 | 18.89° C | 48% | 1006.8 hPa | 0 mm | - | - | - |
| 1778069139 | 20° C | 44% | 1006.8 hPa | 0 mm | - | - | - |
| 1778068530 | 19.44° C | 46% | 1006.8 hPa | 0 mm | - | - | - |
| 1778067928 | 18.89° C | 46% | 1007 hPa | 0 mm | - | - | - |
| 1778067319 | 18.89° C | 48% | 1006.9 hPa | 0 mm | - | - | - |
| 1778066717 | 18.33° C | 49% | 1007.1 hPa | 0 mm | - | - | - |
| 1778066170 | 18.89° C | 51% | 1007.3 hPa | 0 mm | - | - | - |
| 1778065566 | 17.78° C | 54% | 1007.4 hPa | 0 mm | - | - | - |
| 1778064963 | 17.78° C | 56% | 1007.4 hPa | 0 mm | - | - | - |
| 1778064355 | 18.33° C | 55% | 1007.4 hPa | 0 mm | - | - | - |
| 1778063753 | 17.78° C | 58% | 1007.5 hPa | 0 mm | - | - | - |
| 1778063144 | 17.22° C | 57% | 1007.6 hPa | 0 mm | - | - | - |
| 1778062542 | 16.67° C | 58% | 1007.6 hPa | 0 mm | - | - | - |
| 1778061939 | 16.11° C | 58% | 1007.6 hPa | 0 mm | - | - | - |
| 1778061331 | 16.11° C | 59% | 1007.9 hPa | 0 mm | - | - | - |
| 1778060729 | 15.56° C | 61% | 1007.9 hPa | 0 mm | - | - | - |
| 1778060120 | 15° C | 61% | 1007.9 hPa | 0 mm | - | - | - |
| 1778059517 | 15° C | 61% | 1008 hPa | 0 mm | - | - | - |
| 1778058915 | 15° C | 60% | 1007.8 hPa | 0 mm | - | - | - |
| 1778058367 | 15° C | 61% | 1007.7 hPa | 0 mm | - | - | - |
| 1778057764 | 15° C | 61% | 1007.7 hPa | 0 mm | - | - | - |
* Rain latest hour (hover to see other rain measurements)
** Current wind speed in m/s (hover to see current wind gust speed)